Time;durP1;ratioP1;P1;durP2;ratioP2;P2;SDS_P1;SDS_P2;PMS_P1;PMS_P2;Temp;Humidity;BMP_temperature;BMP_pressure;BME280_temperature;BME280_humidity;BME280_pressure;Samples;Min_cycle;Max_cycle;Signal;HPM_P1;HPM_P2
2022/05/14 00:01:54;;;;;;;11.20;3.63;;;17.00;99.90;;;;;;5076886;28;20202;-73
2022/05/14 00:04:23;;;;;;;9.43;3.57;;;16.90;99.90;;;;;;5046371;28;20190;-73
2022/05/14 00:06:54;;;;;;;8.43;3.67;;;16.90;99.90;;;;;;5026735;28;20182;-73
2022/05/14 00:09:26;;;;;;;10.27;3.90;;;16.80;99.90;;;;;;5047370;28;21247;-74
2022/05/14 00:14:37;;;;;;;15.27;3.90;;;16.80;99.90;;;;;;5058354;28;20265;-73
2022/05/14 00:17:04;;;;;;;12.40;3.27;;;16.80;99.90;;;;;;5063807;28;20182;-74
2022/05/14 00:19:33;;;;;;;8.10;3.40;;;16.80;99.90;;;;;;5059052;28;20205;-74
2022/05/14 00:21:59;;;;;;;10.60;3.47;;;16.80;99.90;;;;;;5057558;28;20711;-73
2022/05/14 00:24:26;;;;;;;11.03;3.33;;;16.80;99.90;;;;;;5056419;28;20187;-73
2022/05/14 00:26:52;;;;;;;15.43;3.77;;;16.80;99.90;;;;;;5028505;28;20187;-74
2022/05/14 00:29:19;;;;;;;11.07;4.07;;;16.90;99.90;;;;;;5058206;28;20190;-73
2022/05/14 00:31:45;;;;;;;10.07;3.37;;;16.90;99.90;;;;;;5061050;28;20210;-73
2022/05/14 00:34:17;;;;;;;12.30;3.10;;;17.00;99.90;;;;;;5059207;28;21013;-74
2022/05/14 00:36:43;;;;;;;9.07;2.97;;;17.00;99.90;;;;;;5063095;28;20300;-74
2022/05/14 00:39:12;;;;;;;9.00;3.03;;;16.90;99.90;;;;;;5060095;28;20175;-73
2022/05/14 00:41:45;;;;;;;8.43;3.23;;;16.90;99.90;;;;;;5059826;28;20585;-73
2022/05/14 00:44:13;;;;;;;16.23;3.37;;;17.00;99.90;;;;;;5059915;28;20183;-73
2022/05/14 00:46:53;;;;;;;10.97;3.70;;;16.90;99.90;;;;;;5057308;28;20310;-74
2022/05/14 00:49:24;;;;;;;9.80;3.40;;;16.90;99.90;;;;;;5058183;28;21551;-73
2022/05/14 00:51:52;;;;;;;9.93;3.40;;;16.90;99.90;;;;;;5048108;28;20213;-74
2022/05/14 00:54:27;;;;;;;10.63;3.23;;;16.80;99.90;;;;;;5044605;28;20186;-73
2022/05/14 00:57:05;;;;;;;9.47;3.43;;;16.80;99.90;;;;;;5054922;28;20200;-73
2022/05/14 00:59:31;;;;;;;9.03;3.17;;;16.80;99.90;;;;;;5020814;28;20191;-73
2022/05/14 01:02:02;;;;;;;14.53;3.20;;;16.80;99.90;;;;;;5038923;28;20541;-73
2022/05/14 01:04:29;;;;;;;8.57;3.17;;;16.80;99.90;;;;;;5043044;28;20189;-73
2022/05/14 01:07:15;;;;;;;9.00;3.20;;;16.80;99.90;;;;;;5043095;28;20270;-73
2022/05/14 01:09:48;;;;;;;11.53;3.43;;;16.80;99.90;;;;;;5061380;28;20444;-73
2022/05/14 01:12:19;;;;;;;12.07;3.33;;;16.80;99.90;;;;;;5057058;28;20964;-73
2022/05/14 01:14:48;;;;;;;11.27;3.50;;;16.80;99.90;;;;;;5056396;28;22695;-73
2022/05/14 01:17:14;;;;;;;10.57;3.30;;;16.90;99.90;;;;;;5062289;28;20224;-73
2022/05/14 01:19:40;;;;;;;14.13;3.20;;;16.90;99.90;;;;;;5062039;28;20886;-73
2022/05/14 01:22:40;;;;;;;9.10;2.80;;;16.90;99.90;;;;;;5067248;28;22037;-73
2022/05/14 01:28:32;;;;;;;17.77;3.87;;;17.00;99.90;;;;;;5058713;28;20178;-73
2022/05/14 01:31:01;;;;;;;6.13;2.63;;;17.00;99.90;;;;;;5024868;28;20195;-73
2022/05/14 01:33:29;;;;;;;12.50;3.87;;;17.00;99.90;;;;;;5043953;28;20264;-73
2022/05/14 01:35:56;;;;;;;6.57;2.80;;;17.00;99.90;;;;;;5057858;28;20187;-73
2022/05/14 01:38:25;;;;;;;8.90;3.17;;;17.00;99.90;;;;;;5058063;28;20932;-73
2022/05/14 01:40:52;;;;;;;11.87;2.50;;;17.00;99.90;;;;;;5060372;28;20190;-73
2022/05/14 01:43:19;;;;;;;10.30;3.93;;;17.00;99.90;;;;;;5045583;28;20281;-73
2022/05/14 01:45:45;;;;;;;8.50;3.03;;;17.00;99.90;;;;;;5046859;28;21846;-73
2022/05/14 01:48:11;;;;;;;9.50;3.30;;;16.90;99.90;;;;;;5057194;28;20296;-73
2022/05/14 01:50:38;;;;;;;12.77;3.50;;;16.90;99.90;;;;;;5064037;28;20236;-73
2022/05/14 01:53:06;;;;;;;7.40;2.83;;;16.80;99.90;;;;;;5034138;28;20195;-73
2022/05/14 01:55:33;;;;;;;8.63;2.90;;;16.80;99.90;;;;;;5059377;28;20186;-73
2022/05/14 01:57:59;;;;;;;11.07;2.97;;;16.80;99.90;;;;;;5042231;28;20193;-73
2022/05/14 02:00:27;;;;;;;10.23;3.00;;;16.80;99.90;;;;;;5054668;28;20191;-73
2022/05/14 02:02:53;;;;;;;11.87;3.30;;;16.80;99.90;;;;;;5056867;28;21961;-73
2022/05/14 02:05:19;;;;;;;9.63;2.93;;;16.80;99.90;;;;;;5060014;28;20301;-73
2022/05/14 02:07:47;;;;;;;7.57;2.60;;;16.80;99.90;;;;;;5048975;28;20210;-73
2022/05/14 02:10:13;;;;;;;8.53;2.67;;;16.80;99.90;;;;;;5040944;28;20181;-73
2022/05/14 02:12:40;;;;;;;12.87;3.07;;;16.80;99.90;;;;;;5046902;28;20281;-73
2022/05/14 02:15:08;;;;;;;10.33;2.77;;;16.90;99.90;;;;;;5055264;28;20329;-73
2022/05/14 02:17:34;;;;;;;10.57;2.93;;;16.90;99.90;;;;;;5061254;28;20691;-73
2022/05/14 02:20:06;;;;;;;10.77;3.17;;;16.90;99.90;;;;;;5041294;28;20221;-73
2022/05/14 02:22:33;;;;;;;9.73;3.00;;;17.10;99.90;;;;;;5060968;28;20211;-73
2022/05/14 02:24:59;;;;;;;7.07;2.70;;;17.20;99.90;;;;;;5045368;28;20594;-73
2022/05/14 02:27:29;;;;;;;8.67;2.60;;;17.20;99.90;;;;;;5058347;28;20198;-73
2022/05/14 02:29:55;;;;;;;9.23;2.87;;;17.30;99.90;;;;;;5042347;28;20186;-73
2022/05/14 02:32:26;;;;;;;8.47;2.70;;;17.30;99.90;;;;;;5044083;28;20229;-73
2022/05/14 02:34:57;;;;;;;8.40;2.50;;;17.30;99.90;;;;;;5056430;28;20237;-73
2022/05/14 02:37:29;;;;;;;8.20;2.80;;;17.20;99.90;;;;;;5050904;28;20191;-73
2022/05/14 02:39:56;;;;;;;8.00;2.80;;;17.20;99.90;;;;;;5041069;28;20227;-73
2022/05/14 02:42:23;;;;;;;9.03;3.00;;;17.20;99.90;;;;;;5028320;28;20299;-73
2022/05/14 02:44:50;;;;;;;11.47;3.40;;;17.20;99.90;;;;;;5038040;28;20190;-73
2022/05/14 02:47:18;;;;;;;5.37;2.50;;;17.10;99.90;;;;;;5063356;28;20183;-73
2022/05/14 02:49:44;;;;;;;8.30;3.27;;;17.00;99.90;;;;;;5061397;28;20194;-73
2022/05/14 02:52:12;;;;;;;8.73;2.70;;;17.10;99.90;;;;;;5047134;28;20194;-73
2022/05/14 02:54:42;;;;;;;8.50;2.80;;;17.00;99.90;;;;;;5060918;28;20186;-73
2022/05/14 02:57:09;;;;;;;5.37;2.60;;;17.00;99.90;;;;;;5056495;28;20325;-73
2022/05/14 02:59:58;;;;;;;7.00;2.53;;;17.00;99.90;;;;;;5028014;28;20232;-73
2022/05/14 03:02:30;;;;;;;9.60;3.03;;;17.00;99.90;;;;;;5057033;28;20239;-73
2022/05/14 03:05:01;;;;;;;13.17;3.07;;;17.10;99.90;;;;;;5057338;28;20679;-73
2022/05/14 03:07:27;;;;;;;12.47;3.00;;;17.10;99.90;;;;;;5057254;28;20183;-74
2022/05/14 03:09:54;;;;;;;8.67;3.63;;;17.10;99.90;;;;;;5058658;28;20296;-73
2022/05/14 03:12:22;;;;;;;8.70;2.87;;;17.10;99.90;;;;;;5023156;28;20193;-73
2022/05/14 03:14:49;;;;;;;15.07;3.80;;;17.10;99.90;;;;;;5056314;28;20813;-73
2022/05/14 03:17:21;;;;;;;12.47;3.00;;;17.00;99.90;;;;;;5026558;28;20210;-73
2022/05/14 03:19:52;;;;;;;11.13;3.47;;;17.00;99.90;;;;;;5060667;28;20290;-73
2022/05/14 03:22:21;;;;;;;13.63;3.43;;;17.00;99.90;;;;;;5066042;28;20796;-74
2022/05/14 03:24:47;;;;;;;11.27;3.03;;;17.10;99.90;;;;;;5057436;28;20186;-73
2022/05/14 03:27:13;;;;;;;10.53;3.27;;;17.10;99.90;;;;;;5033669;28;20397;-73
2022/05/14 03:29:40;;;;;;;14.80;3.17;;;17.20;99.90;;;;;;5041266;28;20195;-73
2022/05/14 03:32:07;;;;;;;13.53;3.30;;;17.20;99.90;;;;;;5038097;28;20233;-73
2022/05/14 03:34:34;;;;;;;10.43;2.93;;;17.20;99.90;;;;;;5059038;28;20635;-73
2022/05/14 03:37:00;;;;;;;9.33;3.03;;;17.20;99.90;;;;;;5041813;28;20187;-73
2022/05/14 03:39:27;;;;;;;8.07;2.47;;;17.30;99.90;;;;;;5060084;28;20342;-74
2022/05/14 03:41:53;;;;;;;8.63;2.40;;;17.30;99.90;;;;;;5038704;28;20208;-73
2022/05/14 03:44:19;;;;;;;6.70;2.37;;;17.40;99.90;;;;;;5036238;28;20194;-73
2022/05/14 03:46:46;;;;;;;8.30;2.80;;;17.40;99.90;;;;;;5057516;28;20200;-73
2022/05/14 03:49:16;;;;;;;7.50;2.60;;;17.40;99.90;;;;;;5043882;28;20187;-73
2022/05/14 03:51:43;;;;;;;8.50;2.60;;;17.50;99.90;;;;;;5027371;28;20254;-73
2022/05/14 03:54:09;;;;;;;10.00;2.70;;;17.50;99.90;;;;;;5062461;28;20192;-73
2022/05/14 03:56:39;;;;;;;9.23;2.87;;;17.50;99.90;;;;;;5018647;28;20278;-73
2022/05/14 03:59:08;;;;;;;5.30;1.97;;;17.50;99.90;;;;;;5022650;28;20195;-73
2022/05/14 04:01:35;;;;;;;7.00;2.20;;;17.50;99.90;;;;;;5024570;28;20191;-73
2022/05/14 04:04:03;;;;;;;11.97;2.90;;;17.50;99.90;;;;;;5043748;28;20877;-73
2022/05/14 04:06:32;;;;;;;7.77;2.77;;;17.50;99.90;;;;;;5061916;28;20214;-73
2022/05/14 04:08:59;;;;;;;8.13;2.30;;;17.60;99.90;;;;;;5047645;28;20299;-73
2022/05/14 04:11:26;;;;;;;9.50;2.40;;;17.60;99.90;;;;;;5045742;28;20240;-73
2022/05/14 04:13:56;;;;;;;9.10;2.73;;;17.70;99.90;;;;;;5063958;28;20194;-73
2022/05/14 04:16:23;;;;;;;5.30;2.60;;;17.70;99.90;;;;;;5059619;28;20286;-73
2022/05/14 04:18:49;;;;;;;9.93;2.77;;;17.70;99.90;;;;;;5061996;28;20627;-73
2022/05/14 04:21:16;;;;;;;12.33;2.93;;;17.80;99.90;;;;;;5059078;28;20553;-73
2022/05/14 04:23:42;;;;;;;8.53;3.10;;;17.80;99.90;;;;;;5064506;28;20207;-73
2022/05/14 04:26:08;;;;;;;8.37;3.00;;;17.80;99.90;;;;;;5063522;28;21317;-73
2022/05/14 04:28:44;;;;;;;7.30;2.00;;;17.80;99.90;;;;;;5058676;28;20185;-74
2022/05/14 04:31:10;;;;;;;10.30;2.40;;;17.80;99.90;;;;;;5043850;28;20211;-73
2022/05/14 04:33:36;;;;;;;6.50;2.00;;;17.90;99.90;;;;;;5048178;28;20677;-73
2022/05/14 04:36:03;;;;;;;6.37;2.40;;;18.00;99.90;;;;;;5042262;28;20292;-73
2022/05/14 04:38:29;;;;;;;8.87;2.57;;;18.10;99.90;;;;;;5060891;28;20198;-73
2022/05/14 04:40:56;;;;;;;9.43;2.90;;;18.10;99.90;;;;;;5022693;28;20201;-73
2022/05/14 04:43:23;;;;;;;7.60;2.43;;;18.20;99.90;;;;;;5052533;28;20222;-73
2022/05/14 04:45:50;;;;;;;8.63;2.87;;;18.10;99.90;;;;;;5062432;28;20660;-73
2022/05/14 04:48:16;;;;;;;8.57;2.60;;;18.10;99.90;;;;;;5047112;28;20187;-73
2022/05/14 04:50:46;;;;;;;9.17;2.67;;;18.10;99.90;;;;;;5060558;28;20235;-73
2022/05/14 04:53:13;;;;;;;7.70;2.63;;;18.20;99.90;;;;;;5060729;28;20188;-73
2022/05/14 04:55:40;;;;;;;8.10;2.40;;;18.20;99.90;;;;;;5065568;28;20229;-73
2022/05/14 04:58:11;;;;;;;10.57;3.60;;;18.20;99.90;;;;;;5061479;28;20297;-73
2022/05/14 05:00:41;;;;;;;14.20;3.10;;;18.20;99.90;;;;;;5060428;28;20190;-73
2022/05/14 05:03:19;;;;;;;10.23;2.93;;;18.20;99.90;;;;;;5060012;28;20380;-73
2022/05/14 05:06:00;;;;;;;13.97;2.83;;;18.30;99.90;;;;;;5061770;28;20182;-73
2022/05/14 05:08:34;;;;;;;10.07;2.90;;;18.30;99.90;;;;;;5051900;28;20184;-73
2022/05/14 05:11:01;;;;;;;9.43;3.00;;;18.30;99.90;;;;;;5042261;28;20181;-73
2022/05/14 05:13:36;;;;;;;10.70;3.13;;;18.30;99.90;;;;;;5063398;28;20194;-73
2022/05/14 05:16:09;;;;;;;10.23;2.87;;;18.30;99.90;;;;;;5062210;28;21780;-73
2022/05/14 05:18:37;;;;;;;9.23;2.97;;;18.30;99.90;;;;;;5057465;28;20279;-74
2022/05/14 05:21:08;;;;;;;17.13;3.43;;;18.30;99.90;;;;;;5021027;28;20194;-73
2022/05/14 05:23:37;;;;;;;13.17;3.07;;;18.30;99.90;;;;;;5054678;28;20298;-73
2022/05/14 05:26:07;;;;;;;5.97;2.57;;;18.30;99.90;;;;;;5034838;28;20183;-73
2022/05/14 05:28:38;;;;;;;9.47;2.97;;;18.30;99.90;;;;;;5039920;28;20187;-73
2022/05/14 05:31:07;;;;;;;7.83;3.17;;;18.30;99.90;;;;;;5048413;28;20325;-73
2022/05/14 05:33:33;;;;;;;11.43;2.70;;;18.30;99.90;;;;;;5058391;28;20213;-73
2022/05/14 05:36:03;;;;;;;11.13;2.83;;;18.30;99.90;;;;;;5056045;28;20187;-74
2022/05/14 05:38:37;;;;;;;5.83;2.60;;;18.30;99.90;;;;;;5051345;28;20195;-72
2022/05/14 05:41:05;;;;;;;8.53;3.30;;;18.20;99.90;;;;;;5038000;28;21638;-73
2022/05/14 05:43:31;;;;;;;8.97;2.67;;;18.30;99.90;;;;;;5060522;28;20250;-73
2022/05/14 05:46:00;;;;;;;9.93;2.90;;;18.30;99.90;;;;;;5054031;28;20214;-74
2022/05/14 05:48:26;;;;;;;10.07;3.00;;;18.30;99.90;;;;;;5047461;28;20183;-73
2022/05/14 05:50:53;;;;;;;9.83;3.07;;;18.40;99.90;;;;;;5054065;28;20236;-73
2022/05/14 05:56:46;;;;;;;13.20;3.37;;;18.50;99.90;;;;;;5041814;28;20197;-73
2022/05/14 05:58:56;;;;;;;10.37;3.60;;;18.50;99.90;;;;;;5066166;28;20213;-73
2022/05/14 06:01:26;;;;;;;11.37;3.17;;;18.50;99.90;;;;;;5038218;28;20197;-73
2022/05/14 06:03:53;;;;;;;8.93;3.30;;;18.50;99.90;;;;;;5041495;28;20222;-72
2022/05/14 06:06:20;;;;;;;9.87;3.07;;;18.50;99.90;;;;;;5055246;28;20182;-73
2022/05/14 06:08:50;;;;;;;12.13;3.50;;;18.50;99.90;;;;;;5037617;28;22329;-73
2022/05/14 06:11:18;;;;;;;12.60;3.63;;;18.50;99.90;;;;;;5041161;28;20209;-73
2022/05/14 06:13:45;;;;;;;13.17;3.00;;;18.60;99.90;;;;;;5058781;28;20642;-72
2022/05/14 06:16:14;;;;;;;10.27;3.30;;;18.70;99.90;;;;;;5056610;28;20330;-73
2022/05/14 06:18:45;;;;;;;9.87;3.57;;;18.60;99.90;;;;;;5037792;28;20205;-73
2022/05/14 06:21:15;;;;;;;12.20;3.53;;;18.70;99.90;;;;;;5056374;28;20355;-73
2022/05/14 06:23:44;;;;;;;8.43;3.50;;;18.70;99.90;;;;;;5045058;28;20768;-73
2022/05/14 06:26:13;;;;;;;10.33;3.30;;;18.70;99.90;;;;;;5052465;28;20740;-73
2022/05/14 06:28:39;;;;;;;11.77;3.10;;;18.80;99.90;;;;;;5061149;28;20218;-73
2022/05/14 06:31:06;;;;;;;13.70;3.40;;;18.80;99.90;;;;;;5063092;28;20199;-73
2022/05/14 06:33:32;;;;;;;12.87;3.50;;;18.80;99.90;;;;;;5059597;28;20265;-73
2022/05/14 06:35:59;;;;;;;11.43;3.20;;;18.80;99.90;;;;;;5062899;28;20195;-73
2022/05/14 06:38:28;;;;;;;18.00;3.50;;;18.80;99.90;;;;;;5056594;28;20281;-73
2022/05/14 06:40:55;;;;;;;7.10;2.87;;;18.70;99.90;;;;;;5067666;28;20191;-73
2022/05/14 06:43:22;;;;;;;8.67;2.40;;;18.70;99.90;;;;;;5043360;28;20233;-73
2022/05/14 06:45:49;;;;;;;8.27;2.90;;;18.70;99.90;;;;;;5049461;28;20313;-73
2022/05/14 06:48:15;;;;;;;11.93;3.17;;;18.70;99.90;;;;;;5031179;28;20210;-73
2022/05/14 06:50:49;;;;;;;7.27;2.90;;;18.70;99.90;;;;;;5032260;28;20544;-74
2022/05/14 06:53:20;;;;;;;8.37;2.80;;;18.80;99.90;;;;;;5074289;28;20240;-73
2022/05/14 06:55:55;;;;;;;10.47;2.90;;;18.80;99.90;;;;;;5053546;28;20233;-74
2022/05/14 06:58:30;;;;;;;10.33;2.80;;;18.90;99.90;;;;;;5069718;28;20193;-74
2022/05/14 07:00:57;;;;;;;7.70;3.03;;;19.00;99.90;;;;;;5039941;28;20261;-74
2022/05/14 07:08:55;;;;;;;11.97;3.60;;;19.20;99.90;;;;;;5045406;28;20182;-73
2022/05/14 07:11:24;;;;;;;11.13;3.43;;;19.20;99.90;;;;;;5066199;28;20636;-73
2022/05/14 07:13:55;;;;;;;10.57;3.20;;;19.20;99.90;;;;;;5052994;28;20191;-73
2022/05/14 07:16:22;;;;;;;10.90;3.07;;;19.20;99.90;;;;;;5062528;28;20186;-73
2022/05/14 07:18:49;;;;;;;7.43;3.20;;;19.20;99.90;;;;;;5065692;28;20229;-73
2022/05/14 07:21:17;;;;;;;9.60;3.10;;;19.20;99.90;;;;;;5049947;28;20198;-73
2022/05/14 07:23:46;;;;;;;8.43;3.50;;;19.20;99.90;;;;;;5072414;28;20214;-73
2022/05/14 07:26:13;;;;;;;15.43;3.77;;;19.30;99.90;;;;;;5044599;28;20200;-73
2022/05/14 07:28:41;;;;;;;14.20;4.03;;;19.40;99.90;;;;;;5053720;28;20240;-74
2022/05/14 07:31:08;;;;;;;18.27;3.50;;;19.40;99.90;;;;;;5060757;28;20206;-73
2022/05/14 07:33:37;;;;;;;9.03;3.60;;;19.40;99.90;;;;;;5062540;28;20183;-74
2022/05/14 07:36:18;;;;;;;8.90;3.20;;;19.40;99.90;;;;;;5073544;28;20202;-73
2022/05/14 07:38:48;;;;;;;11.93;3.60;;;19.40;99.90;;;;;;5046250;28;20288;-73
2022/05/14 07:41:17;;;;;;;7.57;3.07;;;19.40;99.90;;;;;;5075078;28;20361;-74
2022/05/14 07:43:55;;;;;;;8.07;3.13;;;19.30;99.90;;;;;;5052473;28;20217;-74
2022/05/14 07:46:30;;;;;;;15.40;3.87;;;19.30;99.90;;;;;;5067945;28;20669;-73
2022/05/14 07:49:04;;;;;;;10.97;3.67;;;19.40;99.90;;;;;;5061978;28;20184;-74
2022/05/14 07:51:31;;;;;;;16.40;4.30;;;19.50;99.90;;;;;;5041141;28;20190;-74
2022/05/14 07:53:57;;;;;;;24.97;4.33;;;19.50;99.90;;;;;;5052492;28;20183;-75
2022/05/14 07:56:23;;;;;;;16.30;4.67;;;19.60;99.90;;;;;;5074069;28;20870;-75
2022/05/14 07:58:57;;;;;;;12.00;3.80;;;19.60;99.90;;;;;;5060531;28;20198;-75
2022/05/14 08:01:27;;;;;;;12.43;3.90;;;19.60;99.90;;;;;;5043000;28;20236;-75
2022/05/14 08:03:56;;;;;;;13.77;3.63;;;19.60;99.90;;;;;;5056254;28;20224;-75
2022/05/14 08:06:23;;;;;;;15.27;4.00;;;19.60;99.90;;;;;;5065531;28;20216;-75
2022/05/14 08:08:54;;;;;;;8.67;3.33;;;19.60;99.90;;;;;;5062802;28;20237;-74
2022/05/14 08:11:22;;;;;;;30.07;5.23;;;19.50;99.90;;;;;;5052405;28;20194;-75
2022/05/14 08:13:54;;;;;;;201.30;19.03;;;19.40;99.90;;;;;;5060381;28;20201;-74
2022/05/14 08:16:23;;;;;;;43.40;6.40;;;19.60;99.90;;;;;;5045835;28;20187;-75
2022/05/14 08:18:50;;;;;;;396.70;29.97;;;19.70;99.90;;;;;;5069437;28;20584;-75
2022/05/14 08:26:53;;;;;;;1284.43;113.60;;;20.00;99.90;;;;;;5043919;28;20187;-75
2022/05/14 08:29:22;;;;;;;32.80;5.93;;;20.00;99.90;;;;;;5062032;28;20201;-75
2022/05/14 08:31:49;;;;;;;9.60;3.40;;;20.00;99.90;;;;;;5047032;28;20230;-74
2022/05/14 08:34:16;;;;;;;988.70;85.63;;;20.00;99.90;;;;;;5064266;28;20223;-75
2022/05/14 08:36:43;;;;;;;29.67;6.27;;;20.00;99.90;;;;;;5055398;28;20638;-75
2022/05/14 08:39:16;;;;;;;14.90;4.03;;;20.00;99.90;;;;;;5049028;28;20184;-75
2022/05/14 08:41:47;;;;;;;6.63;3.17;;;20.00;99.90;;;;;;5091383;28;20275;-75
2022/05/14 08:44:21;;;;;;;12.53;3.63;;;20.10;99.90;;;;;;5062633;28;20210;-74
2022/05/14 08:46:58;;;;;;;10.10;3.60;;;20.10;99.90;;;;;;5044711;28;20630;-75
2022/05/14 08:49:49;;;;;;;8.03;4.00;;;20.20;99.90;;;;;;5045686;28;20578;-74
2022/05/14 08:52:24;;;;;;;11.33;3.20;;;20.20;99.90;;;;;;5063463;28;20467;-75
2022/05/14 08:55:01;;;;;;;13.07;3.33;;;20.30;99.90;;;;;;5056943;28;20201;-75
2022/05/14 08:58:05;;;;;;;14.53;3.70;;;20.40;99.90;;;;;;5065876;28;20190;-74
2022/05/14 09:00:31;;;;;;;7.43;2.50;;;20.40;99.90;;;;;;5062285;28;20604;-74
2022/05/14 09:02:58;;;;;;;8.93;3.17;;;20.40;99.90;;;;;;5062055;28;20208;-75
2022/05/14 09:05:35;;;;;;;11.37;3.03;;;20.40;99.90;;;;;;5046784;28;20207;-75
2022/05/14 09:08:07;;;;;;;11.93;2.90;;;20.40;99.90;;;;;;5077672;28;20571;-75
2022/05/14 09:10:41;;;;;;;13.97;2.90;;;20.30;99.90;;;;;;5087044;28;20635;-75
2022/05/14 09:13:17;;;;;;;9.63;2.93;;;20.30;99.90;;;;;;5060056;28;20803;-74
2022/05/14 09:15:57;;;;;;;8.30;2.60;;;20.30;99.90;;;;;;5034037;28;20216;-75
2022/05/14 09:18:44;;;;;;;17.83;3.30;;;20.30;99.90;;;;;;5046332;28;20197;-75
2022/05/14 09:21:32;;;;;;;15.23;3.27;;;20.30;99.90;;;;;;5063763;28;20190;-74
2022/05/14 09:24:14;;;;;;;11.80;3.50;;;20.50;99.90;;;;;;5066407;28;20195;-74
2022/05/14 09:26:44;;;;;;;13.73;3.53;;;20.40;99.90;;;;;;5042786;28;20182;-74
2022/05/14 09:29:32;;;;;;;9.57;3.43;;;20.40;99.90;;;;;;5059899;28;20199;-76
2022/05/14 09:32:16;;;;;;;12.27;3.93;;;20.30;99.90;;;;;;5025060;28;20209;-75
2022/05/14 09:34:43;;;;;;;7.90;3.07;;;20.30;99.90;;;;;;5061535;28;20183;-75
2022/05/14 09:37:16;;;;;;;10.27;3.73;;;20.20;99.90;;;;;;5059621;28;20845;-76
2022/05/14 09:39:42;;;;;;;41.43;6.07;;;20.20;99.90;;;;;;5066408;28;20196;-75
2022/05/14 09:42:39;;;;;;;60.43;6.87;;;20.30;99.90;;;;;;5075485;28;20271;-76
2022/05/14 09:45:30;;;;;;;12.23;4.13;;;20.30;99.90;;;;;;5054414;28;20179;-75
2022/05/14 09:48:08;;;;;;;14.60;3.43;;;20.30;99.90;;;;;;5058357;28;20316;-75
2022/05/14 09:50:35;;;;;;;11.00;3.93;;;20.30;99.90;;;;;;5065346;28;20179;-76
2022/05/14 09:53:05;;;;;;;9.77;3.23;;;20.30;99.90;;;;;;5043954;28;20194;-74
2022/05/14 09:56:12;;;;;;;8.50;3.90;;;20.30;99.90;;;;;;5069381;28;20891;-74
2022/05/14 09:59:10;;;;;;;16.70;4.13;;;20.30;99.90;;;;;;5058909;28;20247;-74
2022/05/14 10:02:37;;;;;;;17.80;3.30;;;20.40;99.90;;;;;;5065086;28;20190;-74
2022/05/14 10:05:32;;;;;;;7.63;3.50;;;20.40;99.90;;;;;;5045896;28;20191;-74
2022/05/14 10:08:25;;;;;;;10.37;4.07;;;20.30;99.90;;;;;;5058645;28;20186;-75
2022/05/14 10:11:26;;;;;;;6.97;3.00;;;20.30;99.90;;;;;;5054958;28;20174;-75
2022/05/14 10:14:23;;;;;;;11.33;3.70;;;20.40;99.90;;;;;;5037910;28;20236;-74
2022/05/14 10:17:49;;;;;;;10.57;3.93;;;20.40;99.90;;;;;;5042978;28;20653;-74
2022/05/14 10:20:43;;;;;;;12.90;3.60;;;20.40;99.90;;;;;;5019699;28;20206;-74
2022/05/14 10:27:23;;;;;;;12.97;3.50;;;20.40;99.90;;;;;;5054946;28;20182;-74
2022/05/14 10:30:16;;;;;;;10.17;3.20;;;20.50;99.90;;;;;;5049398;28;20203;-75
2022/05/14 10:32:47;;;;;;;11.20;3.67;;;20.60;99.90;;;;;;5032723;28;20233;-74
2022/05/14 10:35:31;;;;;;;12.47;3.70;;;20.60;99.90;;;;;;5050652;28;20198;-75
2022/05/14 10:38:11;;;;;;;18.53;3.83;;;20.60;99.90;;;;;;5060753;28;20374;-74
2022/05/14 10:41:06;;;;;;;12.83;3.73;;;20.70;99.90;;;;;;5060149;28;20789;-74
2022/05/14 10:44:01;;;;;;;11.47;3.60;;;20.80;99.90;;;;;;5052014;28;20220;-74
2022/05/14 10:46:36;;;;;;;8.33;3.60;;;20.70;99.90;;;;;;5045273;28;20183;-74
2022/05/14 10:49:38;;;;;;;12.97;3.47;;;20.70;99.90;;;;;;5058620;28;20320;-74
2022/05/14 10:52:15;;;;;;;12.97;3.97;;;20.80;99.90;;;;;;5054428;28;20183;-74
2022/05/14 10:54:45;;;;;;;14.43;4.03;;;20.80;99.90;;;;;;5062900;28;20555;-74
2022/05/14 10:57:15;;;;;;;15.07;4.10;;;21.00;99.90;;;;;;5055208;28;20202;-74
2022/05/14 11:00:09;;;;;;;13.23;3.70;;;21.00;99.90;;;;;;5060192;28;20202;-74
2022/05/14 11:02:50;;;;;;;13.03;3.87;;;21.00;99.90;;;;;;5045489;28;20301;-73
2022/05/14 11:05:34;;;;;;;15.77;4.00;;;21.00;99.90;;;;;;5043664;28;20277;-74
2022/05/14 11:08:26;;;;;;;14.63;4.00;;;21.00;99.90;;;;;;5078538;28;20193;-74
2022/05/14 11:11:13;;;;;;;11.57;3.60;;;21.10;99.90;;;;;;5068056;28;20247;-74
2022/05/14 11:13:42;;;;;;;12.93;4.00;;;21.10;99.90;;;;;;5066415;28;20194;-74
2022/05/14 11:16:14;;;;;;;10.53;3.93;;;21.10;99.90;;;;;;5038648;28;20298;-74
2022/05/14 11:18:53;;;;;;;8.97;3.67;;;21.10;99.90;;;;;;5057407;28;20220;-74
2022/05/14 11:21:45;;;;;;;14.83;4.17;;;21.10;99.90;;;;;;5051258;28;20953;-74
2022/05/14 11:24:29;;;;;;;10.47;4.00;;;21.00;99.90;;;;;;5075799;28;20219;-74
2022/05/14 11:26:55;;;;;;;10.70;3.97;;;21.00;99.90;;;;;;5080510;28;20197;-74
2022/05/14 11:29:29;;;;;;;9.13;3.73;;;21.00;99.90;;;;;;5067526;28;21791;-74
2022/05/14 11:32:23;;;;;;;12.77;3.90;;;21.00;99.90;;;;;;5039365;28;20229;-74
2022/05/14 11:34:59;;;;;;;13.63;3.87;;;21.10;99.90;;;;;;5061225;28;20187;-74
2022/05/14 11:37:57;;;;;;;18.37;3.70;;;21.10;99.90;;;;;;5050549;28;21033;-75
2022/05/14 11:40:24;;;;;;;18.13;4.27;;;21.30;99.90;;;;;;5074608;28;20214;-75
2022/05/14 11:43:34;;;;;;;16.87;3.90;;;21.30;99.90;;;;;;5067521;28;20567;-74
2022/05/14 11:46:41;;;;;;;15.63;4.23;;;21.40;99.90;;;;;;5029573;28;20282;-74
2022/05/14 11:49:41;;;;;;;16.07;3.87;;;21.40;99.90;;;;;;5017583;28;20307;-74
2022/05/14 11:52:28;;;;;;;16.57;4.00;;;21.40;99.90;;;;;;5065728;28;20199;-74
2022/05/14 11:55:12;;;;;;;14.87;4.07;;;21.50;99.90;;;;;;5060663;28;20203;-74
2022/05/14 11:58:01;;;;;;;45.70;7.13;;;21.50;99.90;;;;;;5062674;28;20194;-74
2022/05/14 12:00:57;;;;;;;30.40;6.53;;;21.50;99.90;;;;;;5082208;28;21041;-74
2022/05/14 12:03:41;;;;;;;25.70;5.50;;;21.50;99.90;;;;;;5045104;28;20257;-74
2022/05/14 12:06:24;;;;;;;16.57;4.30;;;21.50;99.90;;;;;;5065020;28;20194;-74
2022/05/14 12:08:59;;;;;;;16.43;4.23;;;21.40;99.90;;;;;;5051532;28;20917;-74
2022/05/14 12:11:50;;;;;;;15.87;4.23;;;21.30;99.90;;;;;;5060887;28;20198;-74
2022/05/14 12:14:28;;;;;;;98.33;12.03;;;21.30;99.90;;;;;;5050795;28;20191;-74
2022/05/14 12:17:00;;;;;;;21.37;4.50;;;21.30;99.90;;;;;;5062299;28;20193;-74
2022/05/14 12:19:33;;;;;;;17.30;3.70;;;21.30;99.90;;;;;;5050695;28;21004;-74
2022/05/14 12:22:15;;;;;;;150.20;16.50;;;21.20;99.90;;;;;;5058538;28;20193;-74
2022/05/14 12:25:00;;;;;;;167.63;19.53;;;21.20;99.90;;;;;;5060047;28;20199;-75
2022/05/14 12:27:36;;;;;;;65.53;9.90;;;21.20;99.90;;;;;;5045703;28;20186;-74
2022/05/14 12:33:11;;;;;;;19.33;4.10;;;21.20;99.90;;;;;;5050343;28;20183;-74
2022/05/14 12:33:13;;;;;;;20.97;4.40;;;21.20;99.90;;;;;;5054950;28;20215;-74
2022/05/14 12:35:54;;;;;;;10.23;3.90;;;21.20;99.90;;;;;;5056339;28;20899;-75
2022/05/14 12:38:41;;;;;;;30.23;5.73;;;21.10;99.90;;;;;;5061955;28;20196;-74
2022/05/14 12:41:40;;;;;;;19.80;4.23;;;21.10;99.90;;;;;;5047755;28;20335;-74
2022/05/14 12:44:35;;;;;;;139.47;16.60;;;21.00;99.90;;;;;;5048625;28;20210;-74
2022/05/14 12:47:06;;;;;;;16.00;4.03;;;21.00;99.90;;;;;;5065845;28;20277;-74
2022/05/14 12:49:45;;;;;;;13.27;3.30;;;20.90;99.90;;;;;;5069455;28;20234;-74
2022/05/14 12:52:32;;;;;;;12.90;3.40;;;20.90;99.90;;;;;;5059158;28;20187;-74
2022/05/14 12:55:10;;;;;;;24.47;4.47;;;20.80;99.90;;;;;;5036638;28;20199;-74
2022/05/14 12:57:43;;;;;;;22.07;3.80;;;20.80;99.90;;;;;;5055975;28;20199;-74
2022/05/14 13:00:15;;;;;;;8.90;3.13;;;20.80;99.90;;;;;;5065366;28;20229;-74
2022/05/14 13:03:07;;;;;;;15.33;3.80;;;20.70;99.90;;;;;;5044419;28;20687;-74
2022/05/14 13:05:56;;;;;;;8.67;3.33;;;20.70;99.90;;;;;;5047333;28;20183;-74
2022/05/14 13:08:26;;;;;;;9.50;3.20;;;20.60;99.90;;;;;;5047372;28;20310;-74
2022/05/14 13:11:03;;;;;;;9.30;3.40;;;20.60;99.90;;;;;;5033195;28;20194;-74
2022/05/14 13:13:41;;;;;;;11.47;3.33;;;20.60;99.90;;;;;;5059245;28;20310;-74
2022/05/14 13:16:32;;;;;;;12.10;3.10;;;20.60;99.90;;;;;;5047598;28;20190;-74
2022/05/14 13:19:33;;;;;;;8.73;3.30;;;20.60;99.90;;;;;;5061321;28;20195;-74
2022/05/14 13:22:00;;;;;;;12.60;3.60;;;20.50;99.90;;;;;;5058356;28;20245;-74
2022/05/14 13:24:37;;;;;;;8.83;2.83;;;20.60;99.90;;;;;;5036567;28;20219;-74
2022/05/14 13:27:10;;;;;;;11.13;2.97;;;20.60;99.90;;;;;;5078728;28;20341;-74
2022/05/14 13:29:42;;;;;;;15.97;3.80;;;20.60;99.90;;;;;;5063575;28;20195;-74
2022/05/14 13:32:26;;;;;;;13.23;3.10;;;20.60;99.90;;;;;;5050053;28;20784;-74
2022/05/14 13:37:52;;;;;;;7.80;3.43;;;20.50;99.90;;;;;;5039175;28;20191;-74
2022/05/14 13:40:36;;;;;;;22.63;4.57;;;20.50;99.90;;;;;;5063481;28;20283;-75
2022/05/14 13:43:30;;;;;;;13.57;4.10;;;20.50;99.90;;;;;;5057345;28;20718;-74